createdAt,value
2022-10-30T00:01:41.379Z,15.9
2022-10-30T00:02:41.378Z,15.8
2022-10-30T00:03:41.312Z,15.8
2022-10-30T00:04:41.322Z,15.8
2022-10-30T00:06:41.338Z,15.8
2022-10-30T00:07:41.336Z,15.8
2022-10-30T00:08:41.316Z,15.8
2022-10-30T00:09:41.323Z,15.8
2022-10-30T00:11:41.427Z,15.8
2022-10-30T00:12:41.340Z,15.8
2022-10-30T00:13:41.325Z,15.8
2022-10-30T00:14:41.320Z,15.8
2022-10-30T00:15:41.335Z,15.8
2022-10-30T00:16:41.329Z,15.8
2022-10-30T00:17:41.328Z,15.8
2022-10-30T00:18:41.317Z,15.8
2022-10-30T00:19:41.350Z,15.7
2022-10-30T00:20:41.318Z,15.7
2022-10-30T00:21:41.322Z,15.7
2022-10-30T00:22:41.312Z,15.7
2022-10-30T00:23:41.333Z,15.7
2022-10-30T00:24:41.345Z,15.7
2022-10-30T00:25:41.365Z,15.7
2022-10-30T00:27:41.348Z,15.7
2022-10-30T00:28:41.348Z,15.7
2022-10-30T00:29:41.350Z,15.7
2022-10-30T00:31:41.341Z,15.7
2022-10-30T00:32:41.332Z,15.7
2022-10-30T00:33:41.322Z,15.7
2022-10-30T00:35:41.384Z,15.7
2022-10-30T00:36:41.337Z,15.7
2022-10-30T00:37:41.336Z,15.7
2022-10-30T00:38:41.332Z,15.7
2022-10-30T00:39:41.338Z,15.7
2022-10-30T00:40:41.368Z,15.7
2022-10-30T00:41:41.336Z,15.7
2022-10-30T00:42:41.330Z,15.7
2022-10-30T00:43:41.339Z,15.7
2022-10-30T00:44:41.340Z,15.8
2022-10-30T00:45:41.344Z,15.7
2022-10-30T00:46:41.325Z,15.7
2022-10-30T00:47:41.335Z,15.7
2022-10-30T00:48:41.331Z,15.7
2022-10-30T00:49:41.361Z,15.7
2022-10-30T00:50:41.334Z,15.7
2022-10-30T00:51:41.356Z,15.7
2022-10-30T00:52:41.367Z,15.7
2022-10-30T00:53:41.334Z,15.7
2022-10-30T00:54:41.330Z,15.7
2022-10-30T00:55:41.331Z,15.7
2022-10-30T00:57:41.356Z,15.7
2022-10-30T00:58:41.353Z,15.7
2022-10-30T00:59:41.358Z,15.7
2022-10-30T01:00:41.344Z,15.8
2022-10-30T01:01:41.554Z,15.8
2022-10-30T01:02:41.427Z,15.8
2022-10-30T01:03:41.354Z,15.8
2022-10-30T01:04:41.357Z,15.8
2022-10-30T01:05:41.355Z,15.8
2022-10-30T01:06:41.354Z,15.8
2022-10-30T01:07:41.341Z,15.8
2022-10-30T01:08:41.469Z,15.8
2022-10-30T01:09:41.353Z,15.8
2022-10-30T01:10:41.334Z,15.8
2022-10-30T01:11:41.336Z,15.8
2022-10-30T01:12:41.343Z,15.7
2022-10-30T01:13:41.342Z,15.7
2022-10-30T01:14:41.349Z,15.7
2022-10-30T01:15:41.342Z,15.7
2022-10-30T01:16:41.336Z,15.7
2022-10-30T01:17:41.384Z,15.7
2022-10-30T01:18:41.350Z,15.6
2022-10-30T01:19:41.360Z,15.6
2022-10-30T01:20:41.345Z,15.6
2022-10-30T01:21:41.351Z,15.6
2022-10-30T01:22:41.340Z,15.6
2022-10-30T01:23:41.351Z,15.6
2022-10-30T01:24:41.351Z,15.6
2022-10-30T01:25:41.354Z,15.5
2022-10-30T01:26:41.367Z,15.5
2022-10-30T01:27:41.388Z,15.6
2022-10-30T01:28:41.356Z,15.5
2022-10-30T01:29:41.368Z,15.5
2022-10-30T01:30:41.346Z,15.5
2022-10-30T01:31:41.360Z,15.5
2022-10-30T01:32:41.344Z,15.5
2022-10-30T01:33:41.369Z,15.5
2022-10-30T01:35:41.352Z,15.5
2022-10-30T01:36:41.359Z,15.5
2022-10-30T01:38:41.350Z,15.5
2022-10-30T01:39:41.363Z,15.5
2022-10-30T01:40:41.355Z,15.4
2022-10-30T01:41:41.380Z,15.4
2022-10-30T01:42:41.367Z,15.4
2022-10-30T01:43:41.353Z,15.4
2022-10-30T01:44:41.356Z,15.4
2022-10-30T01:45:41.356Z,15.4
2022-10-30T01:46:41.394Z,15.4
2022-10-30T01:47:41.360Z,15.4
2022-10-30T01:48:41.357Z,15.3
2022-10-30T01:49:41.357Z,15.3
2022-10-30T01:50:41.354Z,15.3
2022-10-30T01:51:41.358Z,15.3
2022-10-30T01:53:41.359Z,15.2
2022-10-30T01:54:41.356Z,15.2
2022-10-30T01:56:41.379Z,15.2
2022-10-30T01:57:41.389Z,15.2
2022-10-30T01:58:41.409Z,15.2
2022-10-30T01:59:41.378Z,15.2
2022-10-30T02:00:41.384Z,15.2
2022-10-30T02:01:41.631Z,15.2
2022-10-30T02:02:41.494Z,15.2
2022-10-30T02:03:41.378Z,15.2
2022-10-30T02:04:41.374Z,15.2
2022-10-30T02:06:41.397Z,15.2
2022-10-30T02:07:41.376Z,15.1
2022-10-30T02:08:41.375Z,15.1
2022-10-30T02:09:41.380Z,15.1
2022-10-30T02:10:41.385Z,15.1
2022-10-30T02:11:41.372Z,15.1
2022-10-30T02:12:41.383Z,15
2022-10-30T02:14:41.370Z,15.1
2022-10-30T02:15:42.132Z,15
2022-10-30T02:16:41.373Z,15
2022-10-30T02:17:41.374Z,15
2022-10-30T02:18:41.459Z,15
2022-10-30T02:19:41.375Z,15
2022-10-30T02:20:41.381Z,15
2022-10-30T02:21:41.365Z,15
2022-10-30T02:22:41.492Z,14.9
2022-10-30T02:23:41.433Z,14.9
2022-10-30T02:24:41.383Z,14.9
2022-10-30T02:25:41.382Z,14.9
2022-10-30T02:26:41.398Z,14.9
2022-10-30T02:27:41.384Z,14.9
2022-10-30T02:28:41.398Z,14.9
2022-10-30T02:29:41.410Z,14.9
2022-10-30T02:30:41.386Z,14.9
2022-10-30T02:31:41.379Z,14.9
2022-10-30T02:32:41.376Z,14.9
2022-10-30T02:33:41.382Z,14.9
2022-10-30T02:34:41.395Z,14.8
2022-10-30T02:35:41.385Z,14.8
2022-10-30T02:36:41.393Z,14.7
2022-10-30T02:37:41.395Z,14.7
2022-10-30T02:38:41.385Z,14.7
2022-10-30T02:39:41.395Z,14.7
2022-10-30T02:43:41.390Z,14.7
2022-10-30T02:44:41.397Z,14.6
2022-10-30T02:45:41.391Z,14.6
2022-10-30T02:46:41.384Z,14.5
2022-10-30T02:47:41.378Z,14.5
2022-10-30T02:48:41.401Z,14.5
2022-10-30T02:49:41.378Z,14.4
2022-10-30T02:50:41.393Z,14.4
2022-10-30T02:51:41.397Z,14.5
2022-10-30T02:52:41.387Z,14.5
2022-10-30T02:53:41.400Z,14.5
2022-10-30T02:54:41.385Z,14.5
2022-10-30T02:55:41.391Z,14.5
2022-10-30T02:56:41.406Z,14.5
2022-10-30T02:57:41.455Z,14.4
2022-10-30T02:58:41.409Z,14.4
2022-10-30T02:59:41.407Z,14.4
2022-10-30T03:00:41.422Z,14.4
2022-10-30T03:01:41.484Z,14.4
2022-10-30T03:02:41.485Z,14.4
2022-10-30T03:03:41.431Z,14.4
2022-10-30T03:04:41.406Z,14.4
2022-10-30T03:05:41.388Z,14.3
2022-10-30T03:06:41.386Z,14.3
2022-10-30T03:07:41.414Z,14.3
2022-10-30T03:08:41.400Z,14.3
2022-10-30T03:09:41.396Z,14.3
2022-10-30T03:10:41.393Z,14.3
2022-10-30T03:11:41.389Z,14.2
2022-10-30T03:12:41.385Z,14.2
2022-10-30T03:13:41.390Z,14.2
2022-10-30T03:14:41.394Z,14.2
2022-10-30T03:15:41.398Z,14.2
2022-10-30T03:16:41.389Z,14.2
2022-10-30T03:18:41.398Z,14.2
2022-10-30T03:19:41.414Z,14.2
2022-10-30T03:20:41.402Z,14.2
2022-10-30T03:21:41.405Z,14.2
2022-10-30T03:22:41.411Z,14.2
2022-10-30T03:23:41.391Z,14.1
2022-10-30T03:24:41.386Z,14.1
2022-10-30T03:25:41.395Z,14.1
2022-10-30T03:26:41.413Z,14.2
2022-10-30T03:27:41.401Z,14.2
2022-10-30T03:28:41.391Z,14.2
2022-10-30T03:29:41.413Z,14.1
2022-10-30T03:30:41.401Z,14.1
2022-10-30T03:31:41.440Z,14.1
2022-10-30T03:32:41.417Z,14.1
2022-10-30T03:33:41.448Z,14.1
2022-10-30T03:34:41.398Z,14.1
2022-10-30T03:35:41.410Z,14.1
2022-10-30T03:36:41.419Z,14.1
2022-10-30T03:37:41.402Z,14.1
2022-10-30T03:38:41.399Z,14.1
2022-10-30T03:39:41.403Z,14.1
2022-10-30T03:40:41.400Z,14.1
2022-10-30T03:41:41.415Z,14.1
2022-10-30T03:42:41.401Z,14.1
2022-10-30T03:43:41.396Z,14
2022-10-30T03:44:41.398Z,14
2022-10-30T03:45:41.402Z,14
2022-10-30T03:46:41.405Z,14
2022-10-30T03:47:41.404Z,14
2022-10-30T03:48:41.399Z,14
2022-10-30T03:49:41.403Z,14
2022-10-30T03:50:41.412Z,14
2022-10-30T03:51:41.408Z,14
2022-10-30T03:52:41.406Z,13.9
2022-10-30T03:53:41.569Z,14
2022-10-30T03:54:41.412Z,14
2022-10-30T03:55:41.411Z,14
2022-10-30T03:56:41.404Z,13.9
2022-10-30T03:57:41.425Z,13.9
2022-10-30T03:58:41.419Z,13.9
2022-10-30T03:59:41.413Z,13.9
2022-10-30T04:00:41.412Z,13.9
2022-10-30T04:01:41.690Z,13.9
2022-10-30T04:02:41.440Z,13.9
2022-10-30T04:03:41.405Z,13.9
2022-10-30T04:04:41.429Z,13.8
2022-10-30T04:05:41.439Z,13.8
2022-10-30T04:06:41.502Z,13.7
2022-10-30T04:07:41.423Z,13.7
2022-10-30T04:08:41.421Z,13.7
2022-10-30T04:09:41.449Z,13.7
2022-10-30T04:10:41.456Z,13.7
2022-10-30T04:11:41.428Z,13.7
2022-10-30T04:12:41.415Z,13.7
2022-10-30T04:13:41.423Z,13.7
2022-10-30T04:14:41.423Z,13.6
2022-10-30T04:15:41.408Z,13.6
2022-10-30T04:16:41.442Z,13.7
2022-10-30T04:17:41.414Z,13.6
2022-10-30T04:18:41.431Z,13.6
2022-10-30T04:19:41.416Z,13.6
2022-10-30T04:20:41.425Z,13.6
2022-10-30T04:21:41.424Z,13.5
2022-10-30T04:22:41.425Z,13.5
2022-10-30T04:23:41.428Z,13.5
2022-10-30T04:24:41.431Z,13.5
2022-10-30T04:25:41.431Z,13.5
2022-10-30T04:26:41.423Z,13.5
2022-10-30T04:27:41.422Z,13.5
2022-10-30T04:28:41.429Z,13.5
2022-10-30T04:29:41.440Z,13.5
2022-10-30T04:30:41.423Z,13.5
2022-10-30T04:31:41.434Z,13.5
2022-10-30T04:32:41.420Z,13.5
2022-10-30T04:33:41.447Z,13.5
2022-10-30T04:34:41.424Z,13.4
2022-10-30T04:35:41.446Z,13.4
2022-10-30T04:36:41.433Z,13.4
2022-10-30T04:37:41.423Z,13.4
2022-10-30T04:38:41.429Z,13.4
2022-10-30T04:39:45.491Z,13.3
2022-10-30T04:40:41.503Z,13.3
2022-10-30T04:41:41.440Z,13.3
2022-10-30T04:42:41.434Z,13.3
2022-10-30T04:43:41.430Z,13.3
2022-10-30T04:44:41.425Z,13.3
2022-10-30T04:45:41.450Z,13.3
2022-10-30T04:46:41.440Z,13.3
2022-10-30T04:47:41.421Z,13.2
2022-10-30T04:49:41.426Z,13.2
2022-10-30T04:50:41.443Z,13.2
2022-10-30T04:51:41.432Z,13.2
2022-10-30T04:52:41.427Z,13.2
2022-10-30T04:53:41.439Z,13.2
2022-10-30T04:54:41.445Z,13.2
2022-10-30T04:55:41.488Z,13.2
2022-10-30T04:56:41.437Z,13.2
2022-10-30T04:57:41.455Z,13.2
2022-10-30T04:58:41.449Z,13.2
2022-10-30T04:59:41.441Z,13.2
2022-10-30T05:00:41.475Z,13.2
2022-10-30T05:01:41.563Z,13.3
2022-10-30T05:02:41.635Z,13.2
2022-10-30T05:03:41.439Z,13.2
2022-10-30T05:04:41.458Z,13.2
2022-10-30T05:05:41.444Z,13.2
2022-10-30T05:06:41.439Z,13.2
2022-10-30T05:07:41.447Z,13.2
2022-10-30T05:08:41.440Z,13.2
2022-10-30T05:09:41.448Z,13.2
2022-10-30T05:10:41.440Z,13.2
2022-10-30T05:11:41.448Z,13.2
2022-10-30T05:12:41.512Z,13.1
2022-10-30T05:13:41.436Z,13.1
2022-10-30T05:14:41.443Z,13.1
2022-10-30T05:15:41.462Z,13.1
2022-10-30T05:16:41.451Z,13.1
2022-10-30T05:17:41.452Z,13.1
2022-10-30T05:18:41.443Z,13
2022-10-30T05:19:41.446Z,13
2022-10-30T05:20:41.448Z,13
2022-10-30T05:21:41.445Z,13
2022-10-30T05:22:41.442Z,13
2022-10-30T05:23:41.454Z,13
2022-10-30T05:24:41.459Z,13.1
2022-10-30T05:25:41.452Z,13
2022-10-30T05:26:41.446Z,13
2022-10-30T05:27:41.453Z,13
2022-10-30T05:28:41.455Z,13
2022-10-30T05:29:41.478Z,13
2022-10-30T05:30:41.827Z,12.9
2022-10-30T05:31:41.459Z,12.9
2022-10-30T05:32:41.467Z,12.9
2022-10-30T05:33:41.452Z,12.9
2022-10-30T05:34:41.479Z,12.9
2022-10-30T05:35:41.479Z,12.9
2022-10-30T05:36:41.449Z,12.9
2022-10-30T05:37:41.453Z,12.8
2022-10-30T05:38:41.449Z,12.9
2022-10-30T05:39:41.445Z,12.8
2022-10-30T05:40:41.456Z,12.8
2022-10-30T05:41:41.469Z,12.7
2022-10-30T05:42:41.454Z,12.7
2022-10-30T05:43:41.460Z,12.8
2022-10-30T05:44:59.920Z,12.7
2022-10-30T05:45:41.487Z,12.7
2022-10-30T05:46:41.549Z,12.7
2022-10-30T05:47:41.445Z,12.7
2022-10-30T05:48:41.448Z,12.7
2022-10-30T05:49:41.454Z,12.7
2022-10-30T05:50:41.443Z,12.7
2022-10-30T05:51:41.444Z,12.7
2022-10-30T05:52:41.460Z,12.7
2022-10-30T05:53:41.453Z,12.7
2022-10-30T05:54:41.454Z,12.7
2022-10-30T05:55:41.465Z,12.7
2022-10-30T05:56:41.500Z,12.7
2022-10-30T05:57:41.467Z,12.7
2022-10-30T05:58:41.463Z,12.7
2022-10-30T05:59:41.469Z,12.7
2022-10-30T06:00:41.466Z,12.7
2022-10-30T06:01:41.587Z,12.6
2022-10-30T06:02:41.517Z,12.6
2022-10-30T06:03:41.470Z,12.6
2022-10-30T06:04:41.466Z,12.6
2022-10-30T06:05:41.460Z,12.6
2022-10-30T06:06:41.527Z,12.6
2022-10-30T06:07:41.474Z,12.5
2022-10-30T06:08:41.462Z,12.5
2022-10-30T06:09:41.468Z,12.5
2022-10-30T06:10:41.465Z,12.5
2022-10-30T06:11:41.475Z,12.5
2022-10-30T06:12:41.466Z,12.5
2022-10-30T06:13:41.470Z,12.5
2022-10-30T06:14:41.457Z,12.5
2022-10-30T06:15:41.455Z,12.5
2022-10-30T06:16:41.466Z,12.5
2022-10-30T06:17:41.465Z,12.5
2022-10-30T06:18:41.468Z,12.5
2022-10-30T06:19:41.471Z,12.5
2022-10-30T06:20:41.478Z,12.5
2022-10-30T06:21:41.478Z,12.4
2022-10-30T06:23:41.477Z,12.4
2022-10-30T06:24:41.461Z,12.4
2022-10-30T06:26:41.477Z,12.4
2022-10-30T06:27:41.484Z,12.4
2022-10-30T06:28:41.533Z,12.4
2022-10-30T06:29:41.455Z,12.4
2022-10-30T06:30:41.487Z,12.4
2022-10-30T06:31:41.469Z,12.4
2022-10-30T06:32:41.472Z,12.4
2022-10-30T06:33:41.464Z,12.4
2022-10-30T06:34:41.491Z,12.4
2022-10-30T06:35:41.467Z,12.4
2022-10-30T06:36:41.497Z,12.4
2022-10-30T06:37:41.497Z,12.4
2022-10-30T06:38:41.468Z,12.4
2022-10-30T06:39:41.468Z,12.4
2022-10-30T06:40:41.459Z,12.4
2022-10-30T06:41:41.462Z,12.8
2022-10-30T06:42:41.481Z,12.7
2022-10-30T06:43:41.479Z,12.6
2022-10-30T06:44:41.468Z,12.6
2022-10-30T06:45:41.497Z,12.7
2022-10-30T06:46:41.465Z,12.6
2022-10-30T06:47:41.483Z,12.6
2022-10-30T06:48:41.466Z,12.6
2022-10-30T06:49:41.467Z,12.6
2022-10-30T06:50:41.473Z,12.6
2022-10-30T06:51:41.467Z,12.6
2022-10-30T06:52:41.464Z,12.5
2022-10-30T06:53:41.468Z,12.6
2022-10-30T06:54:41.472Z,12.6
2022-10-30T06:55:41.473Z,12.6
2022-10-30T06:56:41.464Z,12.6
2022-10-30T06:57:41.475Z,12.6
2022-10-30T06:58:41.478Z,12.6
2022-10-30T06:59:41.473Z,12.6
2022-10-30T07:00:41.512Z,12.6
2022-10-30T07:01:41.536Z,12.5
2022-10-30T07:02:41.487Z,12.5
2022-10-30T07:03:41.473Z,12.6
2022-10-30T07:04:41.472Z,12.6
2022-10-30T07:05:41.490Z,12.7
2022-10-30T07:06:41.505Z,12.7
2022-10-30T07:07:41.467Z,12.7
2022-10-30T07:08:41.504Z,12.9
2022-10-30T07:09:41.487Z,13
2022-10-30T07:10:41.499Z,13
2022-10-30T07:12:41.488Z,13.5
2022-10-30T07:13:41.498Z,13.7
2022-10-30T07:14:41.491Z,14
2022-10-30T07:16:41.504Z,14.6
2022-10-30T07:17:41.559Z,14.8
2022-10-30T07:18:41.481Z,15
2022-10-30T07:19:41.481Z,15.2
2022-10-30T07:20:41.486Z,15.4
2022-10-30T07:21:41.511Z,15.7
2022-10-30T07:22:41.587Z,16
2022-10-30T07:23:41.490Z,16.2
2022-10-30T07:24:41.506Z,16.4
2022-10-30T07:25:41.494Z,16.6
2022-10-30T07:26:41.477Z,16.7
2022-10-30T07:27:41.505Z,16.9
2022-10-30T07:28:41.487Z,17.1
2022-10-30T07:29:41.482Z,17.3
2022-10-30T07:30:41.495Z,17.4
2022-10-30T07:31:42.347Z,17.5
2022-10-30T07:32:41.488Z,17.7
2022-10-30T07:33:41.496Z,17.8
2022-10-30T07:34:41.528Z,17.8
2022-10-30T07:35:41.510Z,17.9
2022-10-30T07:36:41.501Z,18
2022-10-30T07:37:41.494Z,18
2022-10-30T07:38:41.498Z,18.1
2022-10-30T07:39:41.518Z,18.3
2022-10-30T07:40:41.484Z,18.3
2022-10-30T07:41:45.970Z,18.4
2022-10-30T07:42:41.487Z,18.4
2022-10-30T07:43:41.512Z,18.4
2022-10-30T07:44:41.514Z,18.4
2022-10-30T07:45:41.524Z,18.3
2022-10-30T07:46:41.530Z,18.3
2022-10-30T07:47:41.535Z,18.3
2022-10-30T07:48:41.515Z,18.2
2022-10-30T07:49:41.499Z,18.2
2022-10-30T07:50:41.511Z,18.3
2022-10-30T07:51:41.505Z,18.5
2022-10-30T07:52:41.496Z,18.6
2022-10-30T07:53:41.508Z,18.7
2022-10-30T07:54:41.501Z,18.9
2022-10-30T07:55:41.504Z,19.1
2022-10-30T07:56:41.504Z,19.3
2022-10-30T07:57:41.498Z,19.6
2022-10-30T07:58:45.458Z,19.7
2022-10-30T07:59:41.560Z,19.9
2022-10-30T08:00:41.497Z,20.1
2022-10-30T08:01:41.696Z,20.3
2022-10-30T08:02:41.776Z,20.4
2022-10-30T08:03:41.528Z,20.4
2022-10-30T08:04:41.532Z,20.6
2022-10-30T08:05:41.523Z,20.6
2022-10-30T08:06:41.537Z,20.7
2022-10-30T08:07:41.522Z,20.8
2022-10-30T08:08:43.439Z,20.7
2022-10-30T08:09:42.578Z,20.9
2022-10-30T08:10:41.549Z,20.9
2022-10-30T08:11:41.510Z,21.1
2022-10-30T08:12:41.505Z,21.2
2022-10-30T08:13:41.511Z,21.3
2022-10-30T08:14:41.535Z,21.2
2022-10-30T08:15:41.529Z,21.2
2022-10-30T08:16:41.518Z,21.2
2022-10-30T08:17:41.515Z,21.2
2022-10-30T08:18:41.518Z,21.3
2022-10-30T08:19:41.521Z,21.5
2022-10-30T08:20:41.586Z,21.7
2022-10-30T08:23:41.548Z,21.8
2022-10-30T08:24:41.531Z,21.9
2022-10-30T08:25:41.519Z,21.9
2022-10-30T08:26:41.514Z,21.9
2022-10-30T08:27:42.305Z,21.9
2022-10-30T08:28:41.530Z,22
2022-10-30T08:29:41.534Z,21.9
2022-10-30T08:30:41.548Z,21.8
2022-10-30T08:31:41.530Z,21.8
2022-10-30T08:32:41.534Z,21.8
2022-10-30T08:33:41.525Z,21.7
2022-10-30T08:34:41.529Z,21.7
2022-10-30T08:35:41.535Z,21.6
2022-10-30T08:36:43.957Z,21.5
2022-10-30T08:37:41.551Z,21.6
2022-10-30T08:38:41.528Z,21.6
2022-10-30T08:39:41.541Z,21.5
2022-10-30T08:40:41.547Z,21.5
2022-10-30T08:41:41.558Z,21.5
2022-10-30T08:42:41.543Z,21.5
2022-10-30T08:43:41.536Z,21.5
2022-10-30T08:44:41.524Z,21.5
2022-10-30T08:45:41.533Z,21.5
2022-10-30T08:46:41.530Z,21.4
2022-10-30T08:47:41.531Z,21.4
2022-10-30T08:48:41.535Z,21.3
2022-10-30T08:49:41.530Z,21.2
2022-10-30T08:50:41.526Z,21.1
2022-10-30T08:51:41.557Z,21.1
2022-10-30T08:52:41.547Z,21.1
2022-10-30T08:53:41.539Z,21.1
2022-10-30T08:54:41.545Z,21.1
2022-10-30T08:55:41.546Z,21.2
2022-10-30T08:57:41.563Z,21.3
2022-10-30T08:58:41.533Z,21.4
2022-10-30T08:59:41.529Z,21.2
2022-10-30T09:00:41.552Z,21.2
2022-10-30T09:01:41.632Z,21.2
2022-10-30T09:02:41.705Z,21.3
2022-10-30T09:03:41.544Z,21.3
2022-10-30T09:04:41.542Z,21.4
2022-10-30T09:05:41.545Z,21.4
2022-10-30T09:06:41.541Z,21.4
2022-10-30T09:07:41.540Z,21.5
2022-10-30T09:08:41.537Z,21.5
2022-10-30T09:09:41.544Z,21.4
2022-10-30T09:10:41.557Z,21.5
2022-10-30T09:11:41.562Z,21.6
2022-10-30T09:12:41.581Z,21.6
2022-10-30T09:13:41.551Z,21.6
2022-10-30T09:14:41.553Z,21.5
2022-10-30T09:15:41.542Z,21.6
2022-10-30T09:16:41.554Z,21.7
2022-10-30T09:17:41.555Z,21.7
2022-10-30T09:18:41.589Z,21.8
2022-10-30T09:19:41.558Z,21.8
2022-10-30T09:20:41.537Z,21.8
2022-10-30T09:21:41.552Z,21.9
2022-10-30T09:22:41.566Z,21.8
2022-10-30T09:23:41.565Z,21.8
2022-10-30T09:24:41.578Z,21.9
2022-10-30T09:25:41.544Z,21.8
2022-10-30T09:26:41.563Z,21.8
2022-10-30T09:27:41.569Z,21.8
2022-10-30T09:28:41.555Z,21.9
2022-10-30T09:30:41.556Z,21.9
2022-10-30T09:31:41.564Z,21.6
2022-10-30T09:32:41.599Z,21.5
2022-10-30T09:33:41.569Z,21.7
2022-10-30T09:34:41.574Z,21.6
2022-10-30T09:35:41.548Z,21.6
2022-10-30T09:36:41.554Z,21.7
2022-10-30T09:37:41.561Z,21.6
2022-10-30T09:38:41.553Z,21.7
2022-10-30T09:39:41.553Z,21.7
2022-10-30T09:40:41.552Z,21.7
2022-10-30T09:41:42.446Z,21.7
2022-10-30T09:42:41.575Z,21.6
2022-10-30T09:43:41.607Z,21.6
2022-10-30T09:44:41.563Z,21.5
2022-10-30T09:45:41.556Z,21.3
2022-10-30T09:46:41.581Z,21.3
2022-10-30T09:47:41.562Z,21.3
2022-10-30T09:48:41.563Z,21.2
2022-10-30T09:49:41.563Z,21.3
2022-10-30T09:50:41.559Z,21.3
2022-10-30T09:51:41.647Z,21.4
2022-10-30T09:52:41.581Z,21.2
2022-10-30T09:53:41.582Z,21.3
2022-10-30T09:54:41.580Z,21.2
2022-10-30T09:55:41.563Z,21.2
2022-10-30T09:56:41.564Z,21.2
2022-10-30T09:57:41.563Z,21.3
2022-10-30T09:58:41.562Z,21.3
2022-10-30T09:59:41.576Z,21.3
2022-10-30T10:00:41.582Z,21.3
2022-10-30T10:01:41.752Z,21.1
2022-10-30T10:02:41.767Z,21.1
2022-10-30T10:03:41.674Z,21.1
2022-10-30T10:04:41.571Z,21.1
2022-10-30T10:05:41.564Z,21.1
2022-10-30T10:06:41.581Z,21.1
2022-10-30T10:07:41.569Z,21.1
2022-10-30T10:08:41.579Z,21.2
2022-10-30T10:09:41.623Z,21.2
2022-10-30T10:10:41.579Z,21.1
2022-10-30T10:11:41.583Z,21.2
2022-10-30T10:12:41.571Z,21.2
2022-10-30T10:13:41.582Z,21.2
2022-10-30T10:14:41.613Z,21.2
2022-10-30T10:15:41.600Z,21.2
2022-10-30T10:16:41.589Z,21.2
2022-10-30T10:17:41.589Z,21.2
2022-10-30T10:18:41.596Z,21.2
2022-10-30T10:19:41.572Z,21.2
2022-10-30T10:20:41.571Z,21.2
2022-10-30T10:21:41.594Z,21.1
2022-10-30T10:22:41.601Z,21.2
2022-10-30T10:23:41.582Z,21.2
2022-10-30T10:24:41.583Z,21.1
2022-10-30T10:25:41.584Z,21.1
2022-10-30T10:26:41.586Z,21.1
2022-10-30T10:27:41.591Z,21.1
2022-10-30T10:28:41.579Z,21.2
2022-10-30T10:29:41.575Z,21.2
2022-10-30T10:30:41.606Z,21.1
2022-10-30T10:31:41.597Z,21.1
2022-10-30T10:32:41.607Z,21.1
2022-10-30T10:33:41.597Z,21.1
2022-10-30T10:34:41.618Z,21.1
2022-10-30T10:35:41.592Z,21.1
2022-10-30T10:36:41.602Z,21.1
2022-10-30T10:37:41.594Z,21.1
2022-10-30T10:38:41.594Z,21.1
2022-10-30T10:39:41.597Z,21.1
2022-10-30T10:40:41.590Z,21.1
2022-10-30T10:41:41.584Z,21.1
2022-10-30T10:42:41.603Z,21.1
2022-10-30T10:43:41.595Z,21.1
2022-10-30T10:44:41.590Z,21.1
2022-10-30T10:45:41.638Z,21.1
2022-10-30T10:46:41.592Z,21.1
2022-10-30T10:47:41.607Z,21.1
2022-10-30T10:48:41.593Z,21.1
2022-10-30T10:49:41.595Z,21.2
2022-10-30T10:50:41.591Z,21.2
2022-10-30T10:51:41.594Z,21.2
2022-10-30T10:52:41.629Z,21.2
2022-10-30T10:53:41.600Z,21.2
2022-10-30T10:54:41.592Z,21.2
2022-10-30T10:55:41.601Z,21.2
2022-10-30T10:56:41.603Z,21.3
2022-10-30T10:57:41.610Z,21.3
2022-10-30T10:58:41.609Z,21.3
2022-10-30T10:59:41.628Z,21.3
2022-10-30T11:00:41.614Z,21.3
2022-10-30T11:01:41.711Z,21.3
2022-10-30T11:03:41.606Z,21.3
2022-10-30T11:04:41.602Z,21.3
2022-10-30T11:05:41.605Z,21.3
2022-10-30T11:06:41.601Z,21.3
2022-10-30T11:07:41.607Z,21.3
2022-10-30T11:08:41.609Z,21.3
2022-10-30T11:09:41.609Z,21.3
2022-10-30T11:10:41.623Z,21.3
2022-10-30T11:11:41.621Z,21.3
2022-10-30T11:12:41.599Z,21.3
2022-10-30T11:13:41.609Z,21.3
2022-10-30T11:14:41.613Z,21.3
2022-10-30T11:15:41.605Z,21.3
2022-10-30T11:16:41.642Z,21.3
2022-10-30T11:17:41.643Z,21.3
2022-10-30T11:18:41.615Z,21.4
2022-10-30T11:19:41.642Z,21.4
2022-10-30T11:20:41.617Z,21.4
2022-10-30T11:21:41.621Z,21.4
2022-10-30T11:22:41.607Z,21.4
2022-10-30T11:23:41.606Z,21.4
2022-10-30T11:24:41.649Z,21.4
2022-10-30T11:25:41.616Z,21.4
2022-10-30T11:26:41.620Z,21.4
2022-10-30T11:27:41.615Z,21.4
2022-10-30T11:28:41.617Z,21.4
2022-10-30T11:29:41.619Z,21.4
2022-10-30T11:30:41.614Z,21.4
2022-10-30T11:31:41.616Z,21.4
2022-10-30T11:32:41.643Z,21.4
2022-10-30T11:33:41.606Z,21.4
2022-10-30T11:34:41.607Z,21.4
2022-10-30T11:35:41.604Z,21.4
2022-10-30T11:36:41.608Z,21.4
2022-10-30T11:37:41.624Z,21.4
2022-10-30T11:38:41.606Z,21.4
2022-10-30T11:39:41.617Z,21.4
2022-10-30T11:40:41.620Z,21.4
2022-10-30T11:41:41.635Z,21.4
2022-10-30T11:42:41.636Z,21.5
2022-10-30T11:43:41.636Z,21.4
2022-10-30T11:44:41.645Z,21.4
2022-10-30T11:45:41.640Z,21.4
2022-10-30T11:46:41.629Z,21.4
2022-10-30T11:47:41.636Z,21.4
2022-10-30T11:48:41.618Z,21.4
2022-10-30T11:49:41.625Z,21.4
2022-10-30T11:50:41.628Z,21.4
2022-10-30T11:51:41.697Z,21.4
2022-10-30T11:52:41.611Z,21.5
2022-10-30T11:53:41.637Z,21.5
2022-10-30T11:54:41.624Z,21.4
2022-10-30T11:55:41.632Z,21.4
2022-10-30T11:56:41.673Z,21.4
2022-10-30T11:57:41.631Z,21.5
2022-10-30T11:58:41.632Z,21.4
2022-10-30T11:59:41.637Z,21.4
2022-10-30T12:00:41.643Z,21.4
2022-10-30T12:01:41.745Z,21.5
2022-10-30T12:02:41.641Z,21.5
2022-10-30T12:03:41.642Z,21.5
2022-10-30T12:04:41.645Z,21.5
2022-10-30T12:05:43.789Z,21.5
2022-10-30T12:06:41.637Z,21.5
2022-10-30T12:07:41.624Z,21.5
2022-10-30T12:08:41.632Z,21.5
2022-10-30T12:09:41.646Z,21.6
2022-10-30T12:10:41.643Z,21.5
2022-10-30T12:11:41.644Z,21.5
2022-10-30T12:12:41.641Z,21.5
2022-10-30T12:13:41.647Z,21.5
2022-10-30T12:14:41.638Z,21.5
2022-10-30T12:15:41.639Z,21.5
2022-10-30T12:16:41.643Z,21.5
2022-10-30T12:17:41.634Z,21.5
2022-10-30T12:18:41.708Z,21.5
2022-10-30T12:19:41.663Z,21.5
2022-10-30T12:20:41.669Z,21.5
2022-10-30T12:21:41.640Z,21.5
2022-10-30T12:22:41.673Z,21.5
2022-10-30T12:24:41.647Z,21.5
2022-10-30T12:25:41.640Z,21.5
2022-10-30T12:26:41.650Z,21.5
2022-10-30T12:27:41.635Z,21.5
2022-10-30T12:28:41.638Z,21.5
2022-10-30T12:30:06.666Z,21.5
2022-10-30T12:30:41.651Z,21.5
2022-10-30T12:31:41.654Z,21.5
2022-10-30T12:32:41.660Z,21.5
2022-10-30T12:33:41.637Z,21.5
2022-10-30T12:34:41.642Z,21.5
2022-10-30T12:35:41.651Z,21.5
2022-10-30T12:36:41.656Z,21.5
2022-10-30T12:37:41.653Z,21.5
2022-10-30T12:38:41.673Z,21.5
2022-10-30T12:39:41.656Z,21.5
2022-10-30T12:40:41.708Z,21.5
2022-10-30T12:41:41.652Z,21.5
2022-10-30T12:42:41.658Z,21.5
2022-10-30T12:43:41.664Z,21.5
2022-10-30T12:44:41.646Z,21.5
2022-10-30T12:45:41.644Z,21.4
2022-10-30T12:46:41.655Z,21.4
2022-10-30T12:47:41.666Z,21.4
2022-10-30T12:48:41.660Z,21.4
2022-10-30T12:49:41.724Z,21.4
2022-10-30T12:50:41.660Z,21.4
2022-10-30T12:51:41.655Z,21.4
2022-10-30T12:52:41.686Z,21.4
2022-10-30T12:53:41.664Z,21.3
2022-10-30T12:54:41.665Z,21.3
2022-10-30T12:55:41.665Z,21.3
2022-10-30T12:56:41.664Z,21.3
2022-10-30T12:57:41.671Z,21.3
2022-10-30T12:58:41.655Z,21.3
2022-10-30T12:59:41.654Z,21.3
2022-10-30T13:00:41.655Z,21.3
2022-10-30T13:01:41.780Z,21.3
2022-10-30T13:02:41.780Z,21.4
2022-10-30T13:03:41.664Z,21.3
2022-10-30T13:04:41.669Z,21.3
2022-10-30T13:05:41.758Z,21.3
2022-10-30T13:06:41.665Z,21.3
2022-10-30T13:07:41.675Z,21.3
2022-10-30T13:09:41.667Z,21.3
2022-10-30T13:10:41.670Z,21.3
2022-10-30T13:11:41.674Z,21.3
2022-10-30T13:12:41.750Z,21.3
2022-10-30T13:13:41.663Z,21.3
2022-10-30T13:14:41.659Z,21.3
2022-10-30T13:15:41.659Z,21.3
2022-10-30T13:16:41.699Z,21.3
2022-10-30T13:17:41.688Z,21.3
2022-10-30T13:18:41.689Z,21.3
2022-10-30T13:19:41.670Z,21.3
2022-10-30T13:20:41.694Z,21.3
2022-10-30T13:21:41.685Z,21.3
2022-10-30T13:22:41.768Z,21.3
2022-10-30T13:23:41.676Z,21.3
2022-10-30T13:24:41.674Z,21.3
2022-10-30T13:25:41.672Z,21.3
2022-10-30T13:26:41.677Z,21.3
2022-10-30T13:27:41.666Z,21.3
2022-10-30T13:28:41.671Z,21.3
2022-10-30T13:29:41.678Z,21.3
2022-10-30T13:30:41.677Z,21.3
2022-10-30T13:31:41.683Z,21.3
2022-10-30T13:32:41.684Z,21.3
2022-10-30T13:33:41.689Z,21.3
2022-10-30T13:34:41.696Z,21.3
2022-10-30T13:35:41.670Z,21.2
2022-10-30T13:36:41.692Z,21.2
2022-10-30T13:37:41.685Z,21.2
2022-10-30T13:38:41.680Z,21.2
2022-10-30T13:39:41.717Z,21.2
2022-10-30T13:40:41.688Z,21.2
2022-10-30T13:41:41.697Z,21.2
2022-10-30T13:42:41.700Z,21.2
2022-10-30T13:43:43.041Z,21.2
2022-10-30T13:44:41.689Z,21.2
2022-10-30T13:45:41.688Z,21.2
2022-10-30T13:46:41.677Z,21.2
2022-10-30T13:48:41.676Z,21.2
2022-10-30T13:49:41.676Z,21.2
2022-10-30T13:50:41.697Z,21.2
2022-10-30T13:51:41.728Z,21.2